Aviation Digital Data Service (ADDS)

Output produced by METARs form (0235 UTC 30 January 2015)
found at http://aviationweather.gov/adds/metars/
 
KHPN 292337Z 3000/3024 16006KT P6SM SCT025 BKN040 
     FM300400 20005KT 4SM -SN SCT015 BKN025 
     TEMPO 3004/3007 1SM -SN SCT007 BKN015 
     FM301100 25004KT 1SM -SN BKN007 
     FM301500 31012G20KT P6SM VCSH BKN015 
     FM301800 31015G25KT P6SM BKN025 
     FM302200 31018G28KT P6SM SCT030 SCT250 AMD NOT SKED